Time;durP1;ratioP1;P1;durP2;ratioP2;P2;SDS_P1;SDS_P2;PMS_P1;PMS_P2;Temp;Humidity;BMP_temperature;BMP_pressure;BME280_temperature;BME280_humidity;BME280_pressure;Samples;Min_cycle;Max_cycle;Signal;HPM_P1;HPM_P2
2024/02/29 00:02:20;;;;;;;7.77;4.23;;;10.60;99.90;;;11.26;53.71;101381.38;5985132;22;101896;-39
2024/02/29 00:04:46;;;;;;;6.43;3.70;;;10.70;99.90;;;11.28;49.81;101369.00;6035236;22;99698;-38
2024/02/29 00:07:15;;;;;;;9.47;4.00;;;10.70;99.90;;;11.19;49.48;101375.41;5916080;22;98210;-37
2024/02/29 00:09:46;;;;;;;7.23;3.53;;;10.70;99.90;;;11.15;49.81;101370.25;6000463;22;97627;-37
2024/02/29 00:12:12;;;;;;;9.37;4.00;;;10.70;99.90;;;11.18;50.80;101372.81;5996358;22;99616;-38
2024/02/29 00:14:38;;;;;;;8.20;3.87;;;10.70;99.90;;;11.14;49.98;101376.41;5927558;22;98327;-38
2024/02/29 00:17:07;;;;;;;6.20;3.80;;;10.70;99.90;;;11.14;50.16;101371.13;5930203;22;98530;-38
2024/02/29 00:19:33;;;;;;;6.53;3.60;;;10.70;99.90;;;11.17;50.64;101376.34;5996998;22;97115;-37
2024/02/29 00:21:59;;;;;;;9.00;3.97;;;10.70;99.90;;;11.14;49.61;101372.03;5960751;22;99593;-37
2024/02/29 00:24:28;;;;;;;7.13;4.13;;;10.60;99.90;;;11.11;49.93;101376.50;6032938;22;101053;-38
2024/02/29 00:26:54;;;;;;;8.23;3.30;;;10.60;99.90;;;10.99;49.79;101362.75;6008283;22;101042;-38
2024/02/29 00:29:28;;;;;;;8.30;3.80;;;10.50;99.90;;;10.92;50.18;101371.72;5968864;22;98444;-36
2024/02/29 00:32:00;;;;;;;7.87;3.73;;;10.40;99.90;;;10.92;50.72;101371.72;5913445;22;103818;-36
2024/02/29 00:34:29;;;;;;;6.90;3.57;;;10.40;99.90;;;10.89;49.82;101370.94;5901524;22;99206;-38
2024/02/29 00:36:56;;;;;;;6.80;3.80;;;10.40;99.90;;;10.80;50.22;101372.00;6013991;22;97427;-38
2024/02/29 00:39:22;;;;;;;9.43;4.00;;;10.30;99.90;;;10.75;50.20;101368.63;6044939;22;98046;-37
2024/02/29 00:41:53;;;;;;;6.80;3.60;;;10.30;99.90;;;10.69;51.13;101368.78;6057098;22;98320;-37
2024/02/29 00:44:22;;;;;;;7.40;4.27;;;10.20;99.90;;;10.67;51.78;101370.59;5992617;22;104278;-36
2024/02/29 00:46:53;;;;;;;9.37;4.07;;;10.10;99.90;;;10.63;52.29;101366.31;6015494;22;97753;-36
2024/02/29 00:49:19;;;;;;;7.77;3.90;;;10.10;99.90;;;10.67;51.71;101362.66;6030568;22;97383;-36
2024/02/29 00:51:45;;;;;;;7.23;3.90;;;10.20;99.90;;;10.69;50.44;101358.22;5986492;22;99417;-35
2024/02/29 00:54:11;;;;;;;7.43;4.30;;;10.20;99.90;;;10.78;51.32;101358.00;5998572;22;98884;-36
2024/02/29 00:56:37;;;;;;;6.67;3.60;;;10.20;99.90;;;10.85;54.96;101354.31;6020657;22;98347;-39
2024/02/29 00:59:09;;;;;;;6.13;3.57;;;10.20;99.90;;;10.92;55.00;101350.59;5978592;22;97937;-36
2024/02/29 01:01:34;;;;;;;6.70;3.87;;;10.30;99.90;;;10.94;53.13;101354.06;5918921;22;98894;-39
2024/02/29 01:04:00;;;;;;;8.00;3.93;;;10.30;99.90;;;10.81;51.32;101347.34;6000826;22;98512;-38
2024/02/29 01:06:26;;;;;;;6.07;3.23;;;10.30;99.90;;;10.78;51.64;101347.44;6028739;22;97905;-37
2024/02/29 01:08:52;;;;;;;7.97;4.17;;;10.20;99.90;;;10.66;50.90;101347.75;6008495;22;97608;-37
2024/02/29 01:11:18;;;;;;;6.37;4.10;;;10.20;99.90;;;10.59;50.57;101346.19;6047971;22;110807;-37
2024/02/29 01:13:44;;;;;;;9.87;4.10;;;10.10;99.90;;;10.50;51.41;101343.75;6018637;22;104511;-37
2024/02/29 01:16:10;;;;;;;8.50;3.97;;;10.00;99.90;;;10.47;51.29;101336.78;5992505;22;101129;-36
2024/02/29 01:18:36;;;;;;;9.33;4.30;;;10.00;99.90;;;10.50;54.59;101336.72;6016225;22;99393;-38
2024/02/29 01:21:01;;;;;;;7.10;4.10;;;10.00;99.90;;;10.47;51.99;101331.53;5897883;22;99219;-38
2024/02/29 01:23:33;;;;;;;5.70;3.83;;;10.00;99.90;;;10.58;53.63;101333.91;6023426;22;97651;-36
2024/02/29 01:25:59;;;;;;;11.00;4.33;;;10.00;99.90;;;10.53;51.30;101330.47;6029507;22;98245;-36
2024/02/29 01:28:24;;;;;;;8.87;4.07;;;10.10;99.90;;;10.45;51.93;101327.19;5967176;22;97337;-38
2024/02/29 01:30:50;;;;;;;8.43;3.83;;;10.00;99.90;;;10.48;51.95;101321.84;6009475;22;98494;-37
2024/02/29 01:33:16;;;;;;;7.73;4.13;;;10.00;99.90;;;10.42;51.50;101315.81;5964624;22;100398;-37
2024/02/29 01:35:42;;;;;;;7.20;3.57;;;9.90;99.90;;;10.35;50.91;101319.50;6044618;22;97674;-39
2024/02/29 01:38:11;;;;;;;7.03;3.67;;;9.90;99.90;;;10.41;52.14;101322.00;6051676;22;97931;-38
2024/02/29 01:40:36;;;;;;;7.30;4.17;;;9.90;99.90;;;10.47;55.43;101317.47;6051348;22;105721;-37
2024/02/29 01:43:02;;;;;;;8.57;3.93;;;9.90;99.90;;;10.40;52.93;101309.69;5993160;22;97631;-37
2024/02/29 01:45:28;;;;;;;7.87;4.23;;;9.90;99.90;;;10.48;52.92;101312.16;6032784;22;99060;-37
2024/02/29 01:47:54;;;;;;;12.10;5.43;;;10.00;99.90;;;10.57;51.66;101305.78;6066229;22;104246;-37
2024/02/29 01:50:24;;;;;;;9.90;5.03;;;10.00;99.90;;;10.55;50.12;101307.56;6038648;22;99372;-37
2024/02/29 01:52:53;;;;;;;7.43;3.67;;;10.00;99.90;;;10.67;55.19;101291.44;6038470;22;103811;-37
2024/02/29 01:55:19;;;;;;;9.90;4.40;;;10.10;99.90;;;10.86;56.30;101295.34;5935346;22;102792;-36
2024/02/29 01:57:45;;;;;;;6.67;3.20;;;10.20;99.90;;;10.97;55.58;101287.97;5966498;22;106547;-38
2024/02/29 02:00:12;;;;;;;8.07;4.07;;;10.30;99.90;;;11.06;54.26;101280.72;5959181;22;98402;-36
2024/02/29 02:02:38;;;;;;;8.50;4.03;;;10.40;99.90;;;11.17;52.22;101281.28;6041296;22;98268;-37
2024/02/29 02:05:09;;;;;;;10.77;5.00;;;10.50;99.90;;;11.16;52.28;101279.56;6031106;22;103311;-36
2024/02/29 02:07:39;;;;;;;6.47;3.53;;;10.50;99.90;;;11.32;54.12;101272.94;6007337;22;98128;-36
2024/02/29 02:10:06;;;;;;;8.37;4.30;;;10.60;99.90;;;11.34;49.74;101284.31;6056468;22;99097;-37
2024/02/29 02:12:35;;;;;;;9.17;4.00;;;10.70;99.90;;;11.39;50.29;101278.88;6100561;22;98869;-37
2024/02/29 02:15:02;;;;;;;12.00;5.50;;;10.80;99.90;;;11.37;49.19;101273.66;6118361;22;97386;-37
2024/02/29 02:17:29;;;;;;;5.97;2.90;;;10.70;99.90;;;11.51;53.49;101263.53;6115393;22;97701;-37
2024/02/29 02:19:57;;;;;;;10.07;4.60;;;10.80;99.90;;;11.61;52.99;101266.78;6070605;22;99509;-37
2024/02/29 02:22:28;;;;;;;8.87;4.50;;;10.90;99.90;;;11.49;48.76;101260.09;6098752;22;100947;-37
2024/02/29 02:24:54;;;;;;;8.23;4.53;;;10.80;99.90;;;11.62;53.06;101261.47;6115657;22;97418;-39
2024/02/29 02:27:22;;;;;;;7.90;4.17;;;10.90;99.90;;;11.49;48.81;101261.88;6119208;22;98462;-36
2024/02/29 02:29:48;;;;;;;11.30;5.00;;;10.80;99.90;;;11.47;51.28;101256.63;6114115;22;121961;-35
2024/02/29 02:32:13;;;;;;;10.40;4.93;;;10.80;99.90;;;11.45;52.57;101254.97;6115463;22;97784;-37
2024/02/29 02:34:39;;;;;;;11.30;5.33;;;10.80;99.90;;;11.36;48.38;101245.50;6103095;22;100168;-36
2024/02/29 02:37:05;;;;;;;10.10;4.53;;;10.70;99.90;;;11.34;49.11;101252.63;6104543;22;107916;-38
2024/02/29 02:39:31;;;;;;;6.53;4.07;;;10.70;99.90;;;11.43;52.07;101243.53;6098717;22;117844;-38
2024/02/29 02:41:59;;;;;;;6.43;3.30;;;10.80;99.90;;;11.45;51.13;101236.47;6122848;22;112890;-37
2024/02/29 02:44:25;;;;;;;4.50;2.70;;;10.80;99.90;;;11.65;55.13;101236.72;6090242;22;97633;-37
2024/02/29 02:46:54;;;;;;;9.17;4.30;;;11.00;99.90;;;11.88;53.56;101230.75;6103137;22;101506;-36
2024/02/29 02:49:19;;;;;;;4.30;2.50;;;11.20;99.90;;;12.11;54.56;101225.56;6127869;22;132358;-36
2024/02/29 02:51:45;;;;;;;7.80;3.47;;;11.50;99.90;;;12.23;51.30;101219.00;6085184;22;103797;-41
2024/02/29 02:54:11;;;;;;;8.57;4.40;;;11.80;99.90;;;12.36;52.11;101208.88;6110284;22;98181;-38
2024/02/29 02:56:42;;;;;;;11.20;4.63;;;11.90;99.90;;;12.36;51.02;101211.53;6116419;22;97657;-37
2024/02/29 02:59:08;;;;;;;9.50;4.97;;;11.90;99.90;;;12.34;51.61;101208.06;6115259;22;97994;-38
2024/02/29 03:01:34;;;;;;;7.97;4.23;;;11.80;99.90;;;12.20;51.02;101209.41;6111607;22;126043;-36
2024/02/29 03:04:04;;;;;;;9.93;4.30;;;11.70;99.90;;;12.07;46.70;101207.22;6064978;22;97356;-36
2024/02/29 03:06:29;;;;;;;6.10;2.90;;;11.50;99.90;;;12.13;52.00;101192.00;6111562;22;97402;-38
2024/02/29 03:08:55;;;;;;;5.53;3.10;;;11.50;99.90;;;12.14;52.93;101188.44;6066515;22;104525;-37
2024/02/29 03:11:21;;;;;;;10.50;5.57;;;11.40;99.90;;;12.09;49.77;101190.38;6114489;22;136075;-38
2024/02/29 03:13:47;;;;;;;11.77;5.10;;;11.40;99.90;;;11.98;47.54;101184.56;6060598;22;97172;-38
2024/02/29 03:16:23;;;;;;;4.13;2.13;;;11.40;99.90;;;12.11;54.09;101177.97;6054729;22;105877;-37
2024/02/29 03:18:49;;;;;;;3.80;2.50;;;11.40;99.90;;;12.21;53.18;101173.22;6069746;22;99396;-37
2024/02/29 03:21:15;;;;;;;7.47;3.57;;;11.60;99.90;;;12.32;53.36;101180.81;6094599;22;98688;-37
2024/02/29 03:23:41;;;;;;;6.23;3.40;;;11.70;99.90;;;12.36;52.66;101177.13;6115343;22;107887;-37
2024/02/29 03:26:07;;;;;;;3.90;2.97;;;11.70;99.90;;;12.41;52.33;101175.19;6105631;22;101340;-35
2024/02/29 03:28:33;;;;;;;9.33;5.00;;;11.80;99.90;;;12.30;48.05;101172.06;6094936;22;123322;-37
2024/02/29 03:31:00;;;;;;;6.10;3.53;;;11.70;99.90;;;12.25;51.05;101163.41;6103010;22;97962;-36
2024/02/29 03:33:26;;;;;;;6.57;3.73;;;11.70;99.90;;;12.41;51.81;101154.00;6090124;22;98469;-38
2024/02/29 03:35:52;;;;;;;7.40;3.20;;;11.70;99.90;;;12.28;47.47;101148.28;6102674;22;97199;-35
2024/02/29 03:38:18;;;;;;;4.73;2.60;;;11.70;99.90;;;12.42;52.22;101146.00;6099756;22;97802;-36
2024/02/29 03:40:44;;;;;;;9.83;4.87;;;11.80;99.90;;;12.26;45.78;101143.97;6094217;22;100143;-37
2024/02/29 03:43:10;;;;;;;7.20;3.80;;;11.70;99.90;;;12.31;51.67;101145.56;6116950;22;97495;-36
2024/02/29 03:45:36;;;;;;;9.57;4.37;;;11.70;99.90;;;12.31;45.08;101142.06;6092228;22;107125;-38
2024/02/29 03:48:05;;;;;;;9.33;4.10;;;11.80;99.90;;;12.30;49.42;101146.47;6113195;22;122753;-38
2024/02/29 03:50:31;;;;;;;4.57;2.60;;;11.70;99.90;;;12.16;50.67;101136.38;6104094;22;98902;-35
2024/02/29 03:52:57;;;;;;;6.83;3.70;;;11.60;99.90;;;12.07;47.10;101139.31;6117438;22;97234;-36
2024/02/29 03:55:23;;;;;;;9.57;4.70;;;11.50;99.90;;;12.04;47.80;101134.16;6125103;22;96818;-39
2024/02/29 03:57:48;;;;;;;10.53;4.50;;;11.40;99.90;;;12.04;50.27;101133.28;6114538;22;99798;-36
2024/02/29 04:00:15;;;;;;;4.70;2.57;;;11.40;99.90;;;12.04;52.82;101136.78;6126141;22;121828;-37
2024/02/29 04:02:41;;;;;;;10.47;4.97;;;11.40;99.90;;;11.84;45.77;101131.28;6110759;22;104800;-37
2024/02/29 04:05:13;;;;;;;5.20;2.77;;;11.30;99.90;;;12.03;54.00;101127.13;6089034;22;107772;-38
2024/02/29 04:07:42;;;;;;;7.87;3.97;;;11.30;99.90;;;12.08;53.76;101119.91;6112755;22;98707;-38
2024/02/29 04:10:11;;;;;;;7.47;3.20;;;11.40;99.90;;;12.09;47.30;101121.63;6102557;22;99109;-36
2024/02/29 04:12:37;;;;;;;8.80;4.63;;;11.50;99.90;;;11.98;46.14;101118.47;6114967;22;98684;-36
2024/02/29 04:15:03;;;;;;;9.27;4.60;;;11.40;99.90;;;12.03;47.78;101111.25;6089655;22;97003;-37
2024/02/29 04:17:32;;;;;;;3.60;2.20;;;11.40;99.90;;;12.16;52.21;101115.22;6104547;22;99416;-35
2024/02/29 04:19:57;;;;;;;8.50;4.60;;;11.50;99.90;;;11.95;45.74;101112.44;6089135;22;99992;-35
2024/02/29 04:22:23;;;;;;;9.40;4.87;;;11.40;99.90;;;11.96;46.33;101099.16;6095368;22;111987;-37
2024/02/29 04:24:50;;;;;;;9.33;4.27;;;11.40;99.90;;;12.11;49.25;101105.69;6116409;22;97407;-36
2024/02/29 04:27:16;;;;;;;6.97;3.83;;;11.40;99.90;;;12.14;51.33;101106.44;6122085;22;99644;-37
2024/02/29 04:29:45;;;;;;;4.90;2.43;;;11.40;99.90;;;12.28;48.36;101102.44;6096267;22;107336;-33
2024/02/29 04:32:11;;;;;;;5.20;2.13;;;11.70;99.90;;;12.45;53.15;101097.44;6098833;22;109236;-35
2024/02/29 04:34:37;;;;;;;10.73;4.60;;;11.80;99.90;;;12.41;49.26;101087.88;6077078;22;100875;-39
2024/02/29 04:37:05;;;;;;;6.23;3.07;;;11.90;99.90;;;12.55;52.29;101090.88;6117060;22;97803;-37
2024/02/29 04:39:31;;;;;;;4.87;3.00;;;12.00;99.90;;;12.63;50.93;101080.88;6133405;22;98829;-36
2024/02/29 04:41:57;;;;;;;5.17;3.20;;;12.20;99.90;;;12.68;48.80;101084.22;6100616;22;97303;-36
2024/02/29 04:44:23;;;;;;;6.63;3.30;;;12.20;99.90;;;12.84;50.10;101083.63;6118869;22;97045;-37
2024/02/29 04:46:49;;;;;;;5.47;3.10;;;12.40;99.90;;;12.97;51.02;101084.88;6063765;22;127120;-37
2024/02/29 04:49:16;;;;;;;9.33;4.10;;;12.50;99.90;;;13.07;44.43;101076.53;6112380;22;115775;-36
2024/02/29 04:51:42;;;;;;;4.53;2.53;;;12.80;99.90;;;13.10;50.52;101075.53;6140969;22;97492;-38
2024/02/29 04:54:08;;;;;;;13.07;4.30;;;12.70;99.90;;;13.00;44.11;101074.16;6115437;22;110706;-38
2024/02/29 04:56:35;;;;;;;4.00;2.33;;;12.60;99.90;;;13.05;50.48;101082.81;6107577;22;98506;-37
2024/02/29 04:59:01;;;;;;;8.23;3.93;;;12.50;99.90;;;12.89;42.52;101077.25;6095211;22;100028;-36
2024/02/29 05:01:27;;;;;;;5.00;2.50;;;12.40;99.90;;;12.92;49.35;101071.84;6101318;22;103709;-38
2024/02/29 05:03:52;;;;;;;4.83;2.67;;;12.30;99.90;;;12.86;51.35;101068.53;6116778;22;97258;-37
2024/02/29 05:06:18;;;;;;;10.20;4.30;;;12.20;99.90;;;12.76;45.99;101065.41;6125361;22;106503;-39
2024/02/29 05:08:44;;;;;;;6.33;2.87;;;12.20;99.90;;;12.55;45.40;101061.75;6116662;22;99042;-34
2024/02/29 05:11:10;;;;;;;9.07;4.60;;;12.00;99.90;;;12.32;47.36;101065.28;6083263;22;97341;-36
2024/02/29 05:13:36;;;;;;;5.17;2.73;;;11.70;99.90;;;12.52;48.08;101064.53;6117494;22;100170;-36
2024/02/29 05:16:06;;;;;;;9.97;4.10;;;11.90;99.90;;;12.30;49.58;101060.97;6124984;22;97876;-36
2024/02/29 05:18:32;;;;;;;7.40;3.83;;;11.70;99.90;;;12.47;47.38;101047.97;6113406;22;105718;-36
2024/02/29 05:21:01;;;;;;;7.87;4.37;;;11.90;99.90;;;12.24;46.56;101053.22;6125214;22;97408;-37
2024/02/29 05:23:26;;;;;;;8.67;4.30;;;11.70;99.90;;;12.25;47.00;101041.72;6117617;22;99155;-37
2024/02/29 05:25:52;;;;;;;4.00;2.30;;;11.70;99.90;;;12.40;52.37;101039.38;6098526;22;123437;-38
2024/02/29 05:28:18;;;;;;;4.53;2.20;;;11.80;99.90;;;12.32;52.16;101043.25;6090622;22;99696;-37
2024/02/29 05:30:49;;;;;;;7.90;4.13;;;11.80;99.90;;;12.34;49.79;101041.41;6113971;22;112529;-36
2024/02/29 05:33:17;;;;;;;6.80;3.30;;;11.90;99.90;;;12.47;49.63;101040.03;6104547;22;97491;-35
2024/02/29 05:35:43;;;;;;;3.77;2.37;;;12.00;99.90;;;12.72;51.92;101038.16;6108791;22;101356;-37
2024/02/29 05:38:08;;;;;;;5.87;3.23;;;12.30;99.90;;;12.86;48.71;101034.97;6114185;22;97432;-37
2024/02/29 05:40:35;;;;;;;8.00;4.30;;;12.50;99.90;;;12.91;46.74;101037.47;6082646;22;109283;-37
2024/02/29 05:43:03;;;;;;;4.07;3.10;;;12.60;99.90;;;12.97;48.71;101029.28;6101107;22;97436;-37
2024/02/29 05:45:29;;;;;;;7.73;3.53;;;12.60;99.90;;;12.93;50.42;101025.91;6102737;22;97913;-36
2024/02/29 05:47:54;;;;;;;5.33;2.17;;;12.50;99.90;;;13.09;51.01;101021.72;6110688;22;120940;-37
2024/02/29 05:50:20;;;;;;;5.27;2.50;;;12.60;99.90;;;12.58;43.10;101019.31;6009931;22;112359;-37
2024/02/29 05:52:46;;;;;;;5.10;2.20;;;12.20;99.90;;;12.80;51.59;101017.56;6086004;22;97461;-35
2024/02/29 05:55:15;;;;;;;8.03;4.20;;;12.30;99.90;;;12.53;40.86;101015.97;6086848;22;108060;-36
2024/02/29 05:57:40;;;;;;;9.23;4.37;;;12.10;99.90;;;12.12;40.68;101014.88;6115837;22;98159;-36
2024/02/29 06:00:07;;;;;;;11.97;5.33;;;11.70;99.90;;;11.88;42.08;101021.91;6085630;22;97345;-36
2024/02/29 06:02:33;;;;;;;6.80;3.47;;;11.40;99.90;;;11.90;51.64;101020.06;6095298;22;98035;-37
2024/02/29 06:04:59;;;;;;;11.30;5.73;;;11.30;99.90;;;11.67;44.43;101015.53;6105198;22;99609;-36
2024/02/29 06:07:25;;;;;;;9.63;5.43;;;11.10;99.90;;;11.51;46.78;101017.84;6114072;22;99109;-37
2024/02/29 06:09:54;;;;;;;6.60;3.33;;;11.00;99.90;;;11.67;48.21;101018.19;6116883;22;97273;-38
2024/02/29 06:12:20;;;;;;;6.07;2.93;;;11.10;99.90;;;11.66;49.00;101018.25;6071907;22;113059;-37
2024/02/29 06:14:47;;;;;;;6.97;3.37;;;11.00;99.90;;;11.74;46.73;101024.16;6123167;22;98028;-39
2024/02/29 06:17:21;;;;;;;7.10;3.70;;;11.20;99.90;;;11.84;51.54;101009.69;6096544;22;101498;-37
2024/02/29 06:19:46;;;;;;;9.97;4.13;;;11.30;99.90;;;11.51;42.93;101017.00;6116378;22;97212;-36
2024/02/29 06:22:12;;;;;;;10.53;4.20;;;11.10;99.90;;;11.69;46.73;101020.78;6083818;22;97807;-38
2024/02/29 06:24:38;;;;;;;10.07;4.33;;;11.10;99.90;;;11.60;46.17;101025.47;6105553;22;102000;-36
2024/02/29 06:27:04;;;;;;;13.50;5.57;;;11.10;99.90;;;11.47;44.27;101021.53;6061718;22;100778;-37
2024/02/29 06:29:30;;;;;;;9.53;4.13;;;11.00;99.90;;;11.66;48.37;101015.59;6071439;22;103774;-38
2024/02/29 06:31:57;;;;;;;12.03;5.73;;;11.20;99.90;;;11.80;48.51;101021.31;6113259;22;97274;-36
2024/02/29 06:34:25;;;;;;;4.77;2.37;;;11.30;99.90;;;11.69;53.08;101024.28;6114628;22;102085;-38
2024/02/29 06:36:51;;;;;;;8.80;3.87;;;11.20;99.90;;;11.65;50.94;101019.16;6096549;22;98901;-38
2024/02/29 06:39:17;;;;;;;10.43;4.93;;;11.20;99.90;;;11.76;50.64;101014.38;6068602;22;97616;-36
2024/02/29 06:41:43;;;;;;;8.30;4.90;;;11.20;99.90;;;11.74;49.01;101016.22;6062008;22;103008;-37
2024/02/29 06:44:09;;;;;;;6.20;2.93;;;11.20;99.90;;;11.93;51.85;101017.31;6063364;22;99746;-36
2024/02/29 06:46:35;;;;;;;10.50;5.33;;;11.30;99.90;;;11.87;46.56;101010.47;6027798;22;98060;-36
2024/02/29 06:49:02;;;;;;;4.93;2.33;;;11.40;99.90;;;12.10;52.90;101007.00;6097399;22;108644;-38
2024/02/29 06:51:28;;;;;;;9.23;3.87;;;11.50;99.90;;;12.09;51.27;101010.56;6086368;22;96966;-36
2024/02/29 06:53:54;;;;;;;7.07;3.80;;;11.60;99.90;;;12.16;51.58;101001.50;6069011;22;100518;-36
2024/02/29 06:56:20;;;;;;;5.50;2.93;;;11.70;99.90;;;12.23;46.71;101002.13;6113698;22;99031;-38
2024/02/29 06:58:46;;;;;;;8.33;4.17;;;11.80;99.90;;;12.21;49.27;101002.19;6111059;22;98556;-37
2024/02/29 07:01:19;;;;;;;10.50;4.83;;;11.80;99.90;;;12.08;50.18;101000.91;6108096;22;104502;-36
2024/02/29 07:03:49;;;;;;;4.90;2.87;;;11.60;99.90;;;12.08;50.30;101003.53;6120661;22;99326;-36
2024/02/29 07:06:14;;;;;;;9.60;4.83;;;11.60;99.90;;;12.02;47.03;100998.50;6086812;22;97500;-37
2024/02/29 07:08:41;;;;;;;6.53;3.50;;;11.60;99.90;;;12.17;51.52;101008.50;6056441;22;111018;-37
2024/02/29 07:11:11;;;;;;;8.83;3.57;;;11.70;99.90;;;12.24;50.96;101002.97;6073547;22;97520;-36
2024/02/29 07:13:37;;;;;;;9.80;4.60;;;11.80;99.90;;;12.13;42.48;101006.88;6099988;22;99310;-36
2024/02/29 07:16:03;;;;;;;7.57;3.50;;;12.00;99.90;;;12.38;48.91;101005.97;6073844;22;97747;-45
2024/02/29 07:18:29;;;;;;;4.40;2.00;;;12.00;99.90;;;12.48;51.67;101002.06;6116348;22;98918;-40
2024/02/29 07:20:55;;;;;;;7.67;4.17;;;12.00;99.90;;;12.37;48.58;100999.81;6082913;22;97678;-36
2024/02/29 07:23:21;;;;;;;7.93;4.17;;;11.90;99.90;;;12.29;48.24;100995.72;6040111;22;129159;-37
2024/02/29 07:25:49;;;;;;;10.13;4.93;;;11.90;99.90;;;12.24;43.49;101002.97;6091866;22;98582;-38
2024/02/29 07:28:15;;;;;;;9.63;4.60;;;12.00;99.90;;;12.12;46.21;100994.56;6138066;22;97572;-37
2024/02/29 07:30:41;;;;;;;8.27;3.83;;;11.80;99.90;;;12.20;47.38;100997.81;6107436;22;97534;-38
2024/02/29 07:33:06;;;;;;;7.40;3.90;;;11.80;99.90;;;12.21;48.99;100991.59;6131559;22;126052;-36
2024/02/29 07:35:33;;;;;;;9.60;5.07;;;11.90;99.90;;;12.25;43.24;100995.00;6033144;22;98835;-38
2024/02/29 07:37:59;;;;;;;7.57;3.47;;;12.00;99.90;;;12.06;48.89;100992.16;6081078;22;106552;-38
2024/02/29 07:40:25;;;;;;;6.87;3.60;;;11.80;99.90;;;12.24;51.45;100995.03;6120712;22;97275;-38
2024/02/29 07:42:51;;;;;;;10.07;4.27;;;11.80;99.90;;;12.48;46.02;100999.44;6105154;22;97885;-37
2024/02/29 07:45:18;;;;;;;8.63;4.07;;;12.20;99.90;;;12.38;46.54;100995.41;6123810;22;98858;-39
2024/02/29 07:47:44;;;;;;;8.37;3.70;;;12.10;99.90;;;12.42;46.03;100997.00;6096911;22;108817;-35
2024/02/29 07:50:10;;;;;;;9.07;4.17;;;12.10;99.90;;;12.06;47.24;100984.22;6118394;22;97431;-35
2024/02/29 07:52:37;;;;;;;9.07;3.87;;;11.90;99.90;;;11.85;42.73;100992.91;6101296;22;124110;-36
2024/02/29 07:55:05;;;;;;;5.77;3.43;;;11.70;99.90;;;12.26;46.36;100986.13;6101358;22;97588;-38
2024/02/29 07:57:31;;;;;;;6.77;3.33;;;11.90;99.90;;;12.38;50.05;100984.81;6127590;22;97248;-36
2024/02/29 07:59:57;;;;;;;10.37;4.70;;;12.10;99.90;;;12.12;43.50;100978.72;6108185;22;97221;-37
2024/02/29 08:02:23;;;;;;;7.50;3.67;;;11.90;99.90;;;12.34;49.03;100977.91;6021812;22;98509;-37
2024/02/29 08:04:49;;;;;;;10.67;3.70;;;12.00;99.90;;;12.13;43.54;100976.91;6063335;22;107529;-38
2024/02/29 08:07:15;;;;;;;7.97;3.70;;;11.90;99.90;;;12.14;44.54;100965.44;6004217;22;101623;-37
2024/02/29 08:09:40;;;;;;;6.40;2.50;;;11.90;99.90;;;12.47;51.51;100964.16;6002113;22;99914;-37
2024/02/29 08:12:06;;;;;;;4.10;2.07;;;12.20;99.90;;;12.97;50.82;100965.72;5969620;22;109696;-38
2024/02/29 08:14:32;;;;;;;4.97;2.20;;;12.80;99.90;;;13.36;46.52;100956.16;6031025;22;97473;-37
2024/02/29 08:16:58;;;;;;;5.50;2.90;;;13.40;99.90;;;13.49;46.24;100959.16;6037723;22;97896;-38
2024/02/29 08:19:24;;;;;;;4.60;2.57;;;13.60;99.90;;;13.59;48.26;100956.97;6016750;22;107401;-36
2024/02/29 08:21:50;;;;;;;4.50;2.43;;;13.70;99.90;;;13.78;48.24;100947.28;6043476;22;104073;-37
2024/02/29 08:24:16;;;;;;;3.73;2.30;;;13.80;99.90;;;13.85;46.80;100948.72;5991320;22;128807;-36
2024/02/29 08:26:43;;;;;;;3.40;1.90;;;14.00;99.90;;;13.95;47.42;100949.19;6008824;22;97715;-36
2024/02/29 08:29:14;;;;;;;8.53;3.97;;;14.00;99.90;;;13.92;39.32;100941.38;6076178;22;97412;-38
2024/02/29 08:31:44;;;;;;;5.83;3.57;;;14.10;99.90;;;13.55;38.78;100928.88;5938883;22;99706;-37
2024/02/29 08:34:09;;;;;;;4.93;2.40;;;13.60;99.90;;;13.49;44.12;100924.72;6004697;22;107582;-40
2024/02/29 08:36:37;;;;;;;5.90;2.87;;;13.30;99.90;;;13.31;46.72;100926.38;5975025;22;112462;-38
2024/02/29 08:39:03;;;;;;;11.40;4.83;;;13.00;99.90;;;13.06;40.09;100930.94;5999518;22;98930;-36
2024/02/29 08:41:34;;;;;;;7.13;3.40;;;12.90;99.90;;;13.06;39.94;100928.28;6015643;22;110614;-36
2024/02/29 08:44:03;;;;;;;5.87;3.10;;;13.00;99.90;;;12.96;41.72;100925.16;5956887;22;102290;-38
2024/02/29 08:46:29;;;;;;;7.93;3.47;;;12.90;99.90;;;13.07;46.80;100922.06;5947284;22;98321;-37
2024/02/29 08:48:55;;;;;;;6.63;3.50;;;12.90;99.90;;;13.13;43.44;100921.78;5945175;22;116092;-37
2024/02/29 08:51:21;;;;;;;7.00;3.20;;;13.00;99.90;;;12.92;46.28;100907.69;5891223;22;122879;-38
2024/02/29 08:53:47;;;;;;;5.67;3.07;;;12.80;99.90;;;12.99;43.22;100908.25;5918459;22;98942;-35
2024/02/29 08:56:13;;;;;;;9.83;4.23;;;12.80;99.90;;;12.85;40.02;100908.84;5963562;22;108186;-36
2024/02/29 08:58:39;;;;;;;7.03;3.57;;;12.80;99.90;;;12.87;42.33;100908.78;6061148;22;98035;-35
2024/02/29 09:01:07;;;;;;;4.43;2.67;;;12.80;99.90;;;13.08;46.49;100905.25;6058506;22;114026;-35
2024/02/29 09:03:33;;;;;;;3.97;1.60;;;12.90;99.90;;;13.33;48.87;100903.31;6039073;22;98793;-37
2024/02/29 09:05:59;;;;;;;8.73;3.63;;;13.10;99.90;;;13.18;41.43;100898.69;6009760;22;105040;-38
2024/02/29 09:08:25;;;;;;;6.80;3.13;;;13.20;99.90;;;13.02;41.35;100905.50;6072171;22;116861;-35
2024/02/29 09:10:51;;;;;;;8.90;4.13;;;12.90;99.90;;;12.82;40.54;100896.59;6035837;22;124566;-36
2024/02/29 09:13:19;;;;;;;7.87;4.40;;;12.80;99.90;;;12.71;40.74;100893.50;6060571;22;125356;-37
2024/02/29 09:15:47;;;;;;;8.97;3.63;;;12.70;99.90;;;12.76;40.92;100896.84;5928350;22;104994;-37
2024/02/29 09:18:12;;;;;;;5.73;2.57;;;12.70;99.90;;;12.90;47.31;100892.78;5959183;22;98495;-37
2024/02/29 09:20:41;;;;;;;4.43;2.67;;;12.80;99.90;;;12.95;48.39;100885.50;6029144;22;125999;-35
2024/02/29 09:23:07;;;;;;;7.87;3.27;;;12.90;99.90;;;12.97;45.41;100881.00;5947347;22;100155;-37
2024/02/29 09:25:33;;;;;;;7.13;3.70;;;12.90;99.90;;;12.82;40.96;100888.66;5996575;22;98690;-38
2024/02/29 09:27:59;;;;;;;7.03;3.90;;;12.90;99.90;;;12.88;41.23;100884.03;5921287;22;98219;-36
2024/02/29 09:30:28;;;;;;;6.73;3.13;;;12.90;99.90;;;12.88;45.31;100876.09;5995985;22;102144;-37
2024/02/29 09:32:55;;;;;;;8.23;3.60;;;12.80;99.90;;;12.87;42.25;100871.69;6025983;22;98746;-37
2024/02/29 09:35:21;;;;;;;3.93;1.87;;;12.80;99.90;;;13.15;48.49;100872.25;5971090;22;97736;-51
2024/02/29 09:37:50;;;;;;;5.47;2.73;;;13.00;99.90;;;13.36;44.58;100871.38;6004065;22;97301;-42
2024/02/29 09:40:20;;;;;;;8.33;3.13;;;13.30;99.90;;;13.37;43.09;100866.94;5971141;22;111282;-37
2024/02/29 09:42:46;;;;;;;5.53;3.03;;;13.40;99.90;;;13.30;45.41;100868.13;5926168;22;97828;-37
2024/02/29 09:45:14;;;;;;;4.27;2.00;;;13.30;99.90;;;13.72;47.63;100872.44;6047266;22;98540;-37
2024/02/29 09:47:44;;;;;;;4.67;2.60;;;13.70;99.90;;;13.86;44.37;100860.28;6012369;22;108492;-37
2024/02/29 09:50:11;;;;;;;5.37;2.00;;;13.90;99.90;;;14.05;46.77;100864.75;5981127;22;99962;-35
2024/02/29 09:52:41;;;;;;;1.93;1.40;;;14.20;99.90;;;14.26;46.78;100855.78;6039404;22;97684;-37
2024/02/29 09:55:13;;;;;;;4.97;2.50;;;14.40;99.90;;;14.36;41.83;100854.41;5911564;22;97545;-37
2024/02/29 09:57:42;;;;;;;6.03;2.73;;;14.60;99.90;;;14.08;40.00;100860.16;5937834;22;97787;-38
2024/02/29 10:00:12;;;;;;;6.03;2.80;;;14.30;99.90;;;14.14;42.48;100853.69;6006017;22;98354;-35
2024/02/29 10:02:42;;;;;;;2.43;1.43;;;14.30;99.90;;;14.22;43.77;100851.56;5990090;22;98404;-36
2024/02/29 10:05:11;;;;;;;2.93;1.47;;;14.30;99.90;;;14.30;43.81;100844.06;5966425;22;97150;-38
2024/02/29 10:07:49;;;;;;;3.77;2.00;;;14.40;99.90;;;14.23;41.90;100837.38;5957394;22;98363;-36
2024/02/29 10:10:16;;;;;;;4.63;2.30;;;14.40;99.90;;;13.99;41.31;100840.22;5912887;22;97834;-35